Wednesday, April 25, 2018, 12:12 PM GMT
Back to Local

CYZX, Greenwood, N. S.

Location: , , Canada Lat: 44.983
Local Time: 12:12 PM GMT (12:12 GMT) Lon: -64.917
Time Zone: GMT Elev: 91 ft

Show me the last for .
Show Coded

Time T Td Feel RH Dir Speed Gust Alt SLP Vis Weather Sky Remarks
2018-04-25 12:00 46 36 45 65 290° 3 - 30.26 30.26 15 OVC210 None
2018-04-25 11:00 41 34 - 75 - Calm - 30.27 30.27 15 OVC210 None
2018-04-25 10:00 39 32 36 75 260° 5 - 30.27 30.27 15 BKN240 None
2018-04-25 09:00 39 30 - 69 210° 2 - 30.26 30.27 15 FEW240 None
2018-04-25 08:00 39 30 36 69 240° 5 - 30.26 30.27 15 SCT240 None
2018-04-25 07:00 39 32 - 75 270° 2 - 30.27 30.27 15 BKN240 None
2018-04-25 06:00 43 32 40 65 260° 5 - 30.27 30.27 15 BKN240 None
2018-04-25 05:00 45 32 42 61 270° 5 - 30.28 30.28 15 BKN240 None
2018-04-25 04:00 46 32 45 56 280° 3 - 30.27 30.27 15 BKN240 None
2018-04-25 03:00 48 30 44 49 230° 10 - 30.27 30.27 15 BKN240 None
2018-04-25 02:00 50 30 46 46 250° 10 - 30.28 30.28 15 BKN250 None
2018-04-25 01:00 52 30 - 43 230° 10 18 30.28 30.29 15 BKN250 None
2018-04-25 00:00 55 30 - 37 240° 18 24 30.27 30.28 15 BKN250 None
2018-04-24 23:00 59 30 - 33 230° 20 - 30.26 30.26 15 BKN250 None
2018-04-24 22:00 59 36 - 41 250° 14 20 30.25 30.25 15 SCT170 BKN250 None
2018-04-24 21:00 64 34 - 31 250° 21 - 30.24 30.24 15 SCT170 BKN250 None
2018-04-24 20:00 66 30 - 25 250° 24 31 30.23 30.23 15 SCT170 None
2018-04-24 19:00 72 30 - 21 250° 18 33 30.25 30.25 15 SCT250 None
2018-04-24 18:00 68 34 - 28 250° 26 36 30.27 30.27 15 SCT250 None
2018-04-24 17:00 66 32 - 27 260° 33 - 30.27 30.28 15 SCT250 None
2018-04-24 16:00 66 32 - 27 240° 26 37 30.30 30.30 15 FEW250 None
2018-04-24 15:00 64 30 - 27 260° 30 39 30.32 30.32 15 FEW200 None
2018-04-24 14:00 59 32 - 35 260° 9 - 30.34 30.34 15 FEW170 SCT250 None
2018-04-24 13:00 52 32 - 46 260° 10 - 30.34 30.35 15 FEW170 SCT250 None

Support USWX by starting your Amazon purchase here.